Time;durP1;ratioP1;P1;durP2;ratioP2;P2;SDS_P1;SDS_P2;PMS_P1;PMS_P2;Temp;Humidity;BMP_temperature;BMP_pressure;BME280_temperature;BME280_humidity;BME280_pressure;Samples;Min_cycle;Max_cycle;Signal;HPM_P1;HPM_P2
2023/01/25 00:01:53;;;;;;;;;22.00;21.20;;;;;6.97;48.77;100755.66;5091596;28;8856;-80
2023/01/25 00:04:23;;;;;;;;;23.00;21.20;;;;;6.97;48.48;100762.56;5108543;28;9650;-79
2023/01/25 00:06:52;;;;;;;;;24.40;22.20;;;;;6.79;49.35;100765.44;5091386;28;8844;-79
2023/01/25 00:09:22;;;;;;;;;25.80;21.20;;;;;6.78;49.01;100761.94;5108682;28;8949;-79
2023/01/25 00:11:55;;;;;;;;;26.80;19.20;;;;;6.95;48.60;100764.25;5074780;28;8855;-80
2023/01/25 00:14:25;;;;;;;;;19.20;19.20;;;;;6.97;48.21;100765.16;5110157;28;8840;-79
2023/01/25 00:16:53;;;;;;;;;19.20;15.80;;;;;6.86;48.55;100764.81;5108707;28;8852;-80
2023/01/25 00:19:22;;;;;;;;;23.40;19.20;;;;;6.78;48.34;100769.72;5109782;28;8837;-82
2023/01/25 00:21:51;;;;;;;;;17.40;17.40;;;;;6.82;48.70;100766.44;5110188;28;8852;-79
2023/01/25 00:24:21;;;;;;;;;20.20;18.60;;;;;6.93;47.99;100761.59;5111196;28;8975;-82
2023/01/25 00:26:52;;;;;;;;;20.80;17.60;;;;;7.06;48.27;100762.00;5109744;28;8856;-81
2023/01/25 00:29:21;;;;;;;;;21.60;19.20;;;;;6.75;48.54;100768.75;5110623;28;8868;-79
2023/01/25 00:32:02;;;;;;;;;22.00;18.00;;;;;6.96;48.35;100763.44;5126649;27;8867;-77
2023/01/25 00:34:48;;;;;;;;;24.40;19.80;;;;;7.14;48.12;100773.50;5092601;28;8822;-81
2023/01/25 00:37:24;;;;;;;;;17.80;16.40;;;;;7.09;48.20;100770.78;5110859;28;8849;-79
2023/01/25 00:39:53;;;;;;;;;19.20;16.60;;;;;7.00;47.81;100779.13;5092898;28;8841;-81
2023/01/25 00:42:23;;;;;;;;;21.40;15.40;;;;;7.20;47.56;100768.53;5109150;28;8891;-79
2023/01/25 00:44:52;;;;;;;;;17.20;15.00;;;;;7.34;47.43;100780.25;5092464;28;8868;-81
2023/01/25 00:47:21;;;;;;;;;22.40;18.00;;;;;7.37;47.08;100777.75;5092527;28;8842;-79
2023/01/25 00:49:50;;;;;;;;;21.20;20.80;;;;;7.33;46.95;100768.09;5109065;28;8849;-78
2023/01/25 00:52:19;;;;;;;;;19.00;14.80;;;;;7.52;47.21;100771.28;5090794;28;8991;-79
2023/01/25 00:54:48;;;;;;;;;20.20;16.60;;;;;7.59;46.63;100768.91;5108663;28;8834;-79
2023/01/25 00:57:17;;;;;;;;;22.20;16.20;;;;;7.66;46.98;100772.59;5074086;28;8921;-79
2023/01/25 00:59:47;;;;;;;;;18.60;15.40;;;;;7.61;46.24;100769.84;5092223;28;8852;-78
2023/01/25 01:02:17;;;;;;;;;21.80;21.80;;;;;7.75;46.35;100770.28;5109436;28;8849;-79
2023/01/25 01:04:47;;;;;;;;;17.00;14.60;;;;;7.84;46.05;100774.00;5108664;28;9606;-78
2023/01/25 01:07:16;;;;;;;;;22.60;18.80;;;;;7.84;45.70;100774.00;5106092;27;8842;-81
2023/01/25 01:09:46;;;;;;;;;21.20;19.40;;;;;7.78;45.66;100772.09;5130261;27;8838;-79
2023/01/25 01:12:15;;;;;;;;;21.20;18.20;;;;;7.66;46.51;100771.72;5129569;27;8874;-80
2023/01/25 01:14:44;;;;;;;;;16.20;15.40;;;;;7.87;45.94;100771.50;5129789;27;8830;-79
2023/01/25 01:17:14;;;;;;;;;18.80;16.20;;;;;7.88;45.49;100766.38;5112449;27;8843;-80
2023/01/25 01:19:43;;;;;;;;;17.80;17.80;;;;;7.91;45.61;100771.63;5129374;27;8874;-80
2023/01/25 01:22:11;;;;;;;;;19.60;16.20;;;;;7.93;45.72;100774.28;5130815;27;8855;-78
2023/01/25 01:24:40;;;;;;;;;16.80;16.80;;;;;7.92;45.01;100767.31;5077358;27;8873;-80
2023/01/25 01:27:09;;;;;;;;;17.40;16.60;;;;;7.92;45.15;100770.81;5130756;27;8830;-78
2023/01/25 01:29:38;;;;;;;;;17.80;15.80;;;;;7.99;44.94;100762.34;5130298;27;8830;-81
2023/01/25 01:32:06;;;;;;;;;19.20;18.00;;;;;7.97;44.85;100766.59;5129895;27;8970;-78
2023/01/25 01:34:37;;;;;;;;;20.20;19.20;;;;;7.99;45.59;100761.47;5096153;28;8864;-78
2023/01/25 01:37:06;;;;;;;;;26.00;19.40;;;;;8.05;45.44;100771.16;5109380;28;8852;-79
2023/01/25 01:39:35;;;;;;;;;20.00;18.60;;;;;8.07;45.11;100760.00;5057666;28;8845;-81
2023/01/25 01:42:04;;;;;;;;;22.00;16.60;;;;;8.24;45.46;100762.19;5107827;28;8894;-77
2023/01/25 01:44:48;;;;;;;;;21.00;16.80;;;;;8.43;45.33;100761.00;5107906;28;8841;-78
2023/01/25 01:47:22;;;;;;;;;22.20;20.20;;;;;8.32;44.71;100760.69;5108112;28;8825;-78
2023/01/25 01:50:01;;;;;;;;;18.20;16.80;;;;;8.45;44.97;100760.22;5107664;28;8849;-77
2023/01/25 01:52:37;;;;;;;;;19.00;16.20;;;;;8.48;44.85;100759.44;5090228;28;9678;-79
2023/01/25 01:55:13;;;;;;;;;24.00;20.20;;;;;8.46;44.83;100758.50;5107309;28;8853;-77
2023/01/25 01:57:47;;;;;;;;;23.00;19.80;;;;;8.49;44.50;100763.81;5090489;28;8833;-78
2023/01/25 02:00:21;;;;;;;;;18.20;17.40;;;;;8.29;44.84;100760.59;5107667;28;8841;-79
2023/01/25 02:02:51;;;;;;;;;17.40;14.80;;;;;8.32;44.90;100764.16;5074394;28;8833;-79
2023/01/25 02:05:31;;;;;;;;;18.20;16.60;;;;;8.47;44.81;100757.66;5090740;28;8922;-79
2023/01/25 02:08:03;;;;;;;;;27.00;24.60;;;;;8.36;43.82;100752.16;5107637;28;8909;-77
2023/01/25 02:10:36;;;;;;;;;20.60;19.00;;;;;8.28;44.84;100756.22;5090725;28;8841;-78
2023/01/25 02:13:05;;;;;;;;;23.80;19.80;;;;;8.37;45.04;100754.78;5048795;28;8882;-77
2023/01/25 02:15:38;;;;;;;;;21.20;17.00;;;;;8.36;44.12;100754.75;5048780;28;8848;-79
2023/01/25 02:18:07;;;;;;;;;22.00;19.00;;;;;8.42;44.41;100764.47;5065448;28;8894;-80
2023/01/25 02:20:40;;;;;;;;;21.40;19.60;;;;;8.38;44.60;100759.13;5065560;28;8855;-78
2023/01/25 02:23:16;;;;;;;;;19.20;18.80;;;;;8.34;44.44;100759.03;5049155;28;8867;-79
2023/01/25 02:25:47;;;;;;;;;24.20;20.40;;;;;8.28;44.63;100761.41;5065572;28;8855;-80
2023/01/25 02:28:22;;;;;;;;;19.40;18.00;;;;;8.35;44.91;100755.56;5065521;28;8864;-80
2023/01/25 02:30:51;;;;;;;;;20.20;19.00;;;;;8.35;44.75;100761.63;5048739;28;8856;-77
2023/01/25 02:33:23;;;;;;;;;16.40;14.20;;;;;8.25;44.17;100756.16;5049310;28;8847;-80
2023/01/25 02:36:00;;;;;;;;;16.40;15.40;;;;;8.34;45.00;100759.88;5065763;28;8848;-78
2023/01/25 02:38:33;;;;;;;;;19.00;17.40;;;;;8.29;45.10;100768.41;5017642;28;8890;-79
2023/01/25 02:41:10;;;;;;;;;19.20;19.00;;;;;8.48;44.41;100767.22;5025299;28;8881;-78
2023/01/25 02:43:41;;;;;;;;;19.00;17.80;;;;;8.46;44.38;100761.97;5035647;28;8880;-80
2023/01/25 02:46:17;;;;;;;;;17.20;17.20;;;;;8.12;44.56;100768.78;5065410;28;8943;-79
2023/01/25 02:48:46;;;;;;;;;14.60;14.20;;;;;8.26;44.19;100763.09;5048854;28;8845;-77
2023/01/25 02:51:16;;;;;;;;;16.40;14.40;;;;;8.35;44.43;100758.16;5065534;28;8845;-78
2023/01/25 02:53:44;;;;;;;;;18.80;15.60;;;;;8.20;44.80;100758.59;5082117;28;9031;-78
2023/01/25 02:56:14;;;;;;;;;13.20;9.60;;;;;7.75;46.01;100756.41;5068703;28;8864;-79
2023/01/25 02:58:44;;;;;;;;;21.00;15.60;;;;;7.85;45.87;100760.19;5103029;28;8880;-80
2023/01/25 03:01:14;;;;;;;;;12.80;9.60;;;;;7.90;45.73;100763.78;5068513;28;8822;-78
2023/01/25 03:03:43;;;;;;;;;21.60;18.20;;;;;7.93;45.56;100746.59;5085368;28;8974;-80
2023/01/25 03:06:12;;;;;;;;;16.00;12.80;;;;;8.07;45.02;100757.41;5089087;28;8944;-78
2023/01/25 03:08:43;;;;;;;;;21.60;14.80;;;;;8.00;45.55;100748.53;5068668;28;8882;-78
2023/01/25 03:11:12;;;;;;;;;12.80;12.80;;;;;7.76;45.86;100746.06;5079225;27;8868;-78
2023/01/25 03:13:42;;;;;;;;;19.40;16.40;;;;;7.72;46.16;100751.16;5109194;28;9092;-78
2023/01/25 03:16:12;;;;;;;;;15.00;14.60;;;;;7.72;45.90;100744.22;5109281;28;8857;-78
2023/01/25 03:18:44;;;;;;;;;21.80;17.80;;;;;7.79;46.10;100743.59;5075146;28;8845;-78
2023/01/25 03:21:16;;;;;;;;;19.20;18.40;;;;;7.69;45.76;100749.31;5091805;28;8817;-79
2023/01/25 03:23:46;;;;;;;;;19.20;17.80;;;;;7.78;45.84;100739.22;5092054;28;8841;-77
2023/01/25 03:26:23;;;;;;;;;19.00;17.20;;;;;7.82;45.81;100745.38;5109324;28;8844;-77
2023/01/25 03:29:19;;;;;;;;;16.20;11.80;;;;;7.78;46.09;100746.13;5028959;28;8869;-79
2023/01/25 03:31:50;;;;;;;;;18.80;16.40;;;;;7.78;46.13;100746.13;5028751;28;8934;-79
2023/01/25 03:34:19;;;;;;;;;23.00;19.80;;;;;7.75;45.90;100746.94;5028049;28;8889;-81
2023/01/25 03:36:48;;;;;;;;;16.80;16.60;;;;;7.67;46.42;100745.78;4995473;28;8884;-77
2023/01/25 03:39:16;;;;;;;;;19.00;17.80;;;;;7.78;45.83;100740.94;5011621;28;8845;-79
2023/01/25 03:41:46;;;;;;;;;24.60;17.40;;;;;7.87;46.29;100741.22;4979904;28;8852;-80
2023/01/25 03:44:15;;;;;;;;;15.20;13.00;;;;;7.55;46.97;100737.66;5028186;28;8977;-78
2023/01/25 03:46:48;;;;;;;;;20.40;17.60;;;;;7.70;46.88;100743.31;4979746;28;8855;-78
2023/01/25 03:49:17;;;;;;;;;23.40;16.60;;;;;7.80;46.78;100750.53;5011769;28;8843;-78
2023/01/25 03:51:47;;;;;;;;;9.00;9.00;;;;;7.92;46.30;100747.44;5029093;28;8932;-78
2023/01/25 03:54:16;;;;;;;;;21.60;19.80;;;;;7.95;45.80;100741.44;5031388;28;8859;-80
2023/01/25 03:56:45;;;;;;;;;17.80;16.40;;;;;7.97;45.75;100739.75;5048102;28;8925;-77
2023/01/25 03:59:20;;;;;;;;;18.40;15.80;;;;;7.94;45.99;100737.06;5014716;28;9676;-79
2023/01/25 04:01:50;;;;;;;;;17.20;15.40;;;;;8.01;46.31;100741.59;5031432;28;9620;-78
2023/01/25 04:04:20;;;;;;;;;20.00;15.00;;;;;7.97;45.67;100738.03;5031256;28;8921;-77
2023/01/25 04:06:50;;;;;;;;;20.80;19.00;;;;;7.88;45.96;100737.78;5088175;27;8970;-77
2023/01/25 04:09:20;;;;;;;;;19.20;17.60;;;;;7.88;46.69;100743.00;5113421;27;8873;-78
2023/01/25 04:11:52;;;;;;;;;17.80;17.00;;;;;7.97;45.96;100740.63;5130758;27;8814;-79
2023/01/25 04:14:21;;;;;;;;;21.60;17.40;;;;;7.80;47.29;100740.13;5130358;27;8851;-79
2023/01/25 04:17:07;;;;;;;;;20.20;16.60;;;;;7.66;46.68;100746.66;5131112;27;9003;-80
2023/01/25 04:19:42;;;;;;;;;19.40;19.20;;;;;7.61;47.38;100720.53;5129958;27;8830;-78
2023/01/25 04:22:15;;;;;;;;;21.40;15.80;;;;;7.58;47.63;100730.84;5115140;27;8868;-77
2023/01/25 04:24:44;;;;;;;;;16.40;16.00;;;;;7.49;47.71;100727.94;5111722;28;8874;-79
2023/01/25 04:27:13;;;;;;;;;18.20;17.20;;;;;7.67;47.10;100721.56;5113121;28;8921;-76
2023/01/25 04:29:53;;;;;;;;;16.40;15.80;;;;;7.68;47.62;100721.59;5113171;28;8837;-79
2023/01/25 04:32:24;;;;;;;;;20.80;17.20;;;;;7.72;47.18;100725.19;5112221;28;8841;-80
2023/01/25 04:34:53;;;;;;;;;34.80;28.60;;;;;7.58;46.98;100719.56;5109722;28;8848;-78
2023/01/25 04:37:27;;;;;;;;;17.40;16.40;;;;;7.38;47.50;100721.53;5109344;28;8938;-79
2023/01/25 04:40:00;;;;;;;;;11.80;11.60;;;;;7.42;47.93;100720.81;5092294;28;8841;-78
2023/01/25 04:42:33;;;;;;;;;23.00;17.60;;;;;7.35;48.04;100717.16;5092047;28;8861;-78
2023/01/25 04:45:02;;;;;;;;;23.00;21.60;;;;;7.53;47.21;100715.97;5109171;28;8895;-80
2023/01/25 04:47:33;;;;;;;;;14.20;11.40;;;;;7.57;48.14;100713.47;5109018;28;9682;-78
2023/01/25 04:50:02;;;;;;;;;18.60;18.20;;;;;7.69;47.16;100712.09;5112323;27;8858;-76
2023/01/25 04:52:33;;;;;;;;;22.80;21.60;;;;;7.69;47.61;100718.16;5112572;27;8862;-79
2023/01/25 04:55:02;;;;;;;;;27.60;22.20;;;;;7.55;47.60;100724.66;5112375;27;9017;-78
2023/01/25 04:57:36;;;;;;;;;27.00;24.00;;;;;7.68;47.71;100721.59;5129461;27;8846;-78
2023/01/25 05:00:06;;;;;;;;;19.80;19.40;;;;;7.64;47.99;100724.94;5129648;27;9635;-76
2023/01/25 05:02:38;;;;;;;;;25.20;18.60;;;;;7.49;47.71;100729.69;5112139;27;8874;-79
2023/01/25 05:05:09;;;;;;;;;25.00;22.20;;;;;7.72;47.54;100727.78;5129418;27;9572;-79
2023/01/25 05:07:38;;;;;;;;;26.00;19.20;;;;;7.76;47.64;100727.91;5078178;28;8845;-79
2023/01/25 05:10:09;;;;;;;;;19.40;19.40;;;;;7.61;47.34;100724.84;5041201;28;8881;-78
2023/01/25 05:12:43;;;;;;;;;24.00;22.40;;;;;7.64;48.06;100721.44;5061014;28;9282;-78
2023/01/25 05:15:13;;;;;;;;;25.75;23.50;;;;;7.63;48.27;100722.31;5108594;28;8880;-79
2023/01/25 05:17:44;;;;;;;;;48.00;41.50;;;;;7.66;48.12;100723.28;5108370;28;9571;-78
2023/01/25 05:20:13;;;;;;;;;38.25;32.50;;;;;7.67;47.63;100726.75;5108301;28;8849;-76
2023/01/25 05:22:42;;;;;;;;;29.00;29.00;;;;;7.82;47.16;100729.78;5091694;28;8841;-79
2023/01/25 05:27:54;;;;;;;;;18.60;17.20;;;;;7.76;47.64;100730.50;5107720;28;8826;-78
2023/01/25 05:30:43;;;;;;;;;21.20;17.20;;;;;7.85;47.05;100732.50;5110158;28;8872;-78
2023/01/25 05:33:24;;;;;;;;;20.60;18.60;;;;;7.61;48.06;100730.91;5093579;28;8853;-79
2023/01/25 05:35:55;;;;;;;;;28.60;24.20;;;;;7.63;48.08;100727.50;5102102;28;8855;-76
2023/01/25 05:38:24;;;;;;;;;23.40;22.40;;;;;7.68;48.11;100734.59;5088407;28;8848;-79
2023/01/25 05:40:58;;;;;;;;;26.00;23.40;;;;;7.58;47.78;100745.50;5071391;28;8862;-79
2023/01/25 05:43:27;;;;;;;;;25.20;21.40;;;;;7.56;48.04;100742.88;5054102;28;8859;-80
2023/01/25 05:45:57;;;;;;;;;25.20;22.40;;;;;7.50;48.65;100739.22;5070941;28;8851;-79
2023/01/25 05:48:28;;;;;;;;;25.40;23.00;;;;;7.70;47.88;100740.72;5071464;28;8844;-78
2023/01/25 05:50:58;;;;;;;;;18.40;18.40;;;;;7.70;47.90;100745.91;5069694;28;8887;-78
2023/01/25 05:53:29;;;;;;;;;23.40;21.80;;;;;7.77;48.35;100736.59;5069853;28;8873;-77
2023/01/25 05:56:04;;;;;;;;;18.60;17.00;;;;;8.01;47.33;100741.59;5069357;28;8905;-78
2023/01/25 05:58:34;;;;;;;;;22.80;18.40;;;;;7.93;47.76;100748.31;5086384;28;8849;-80
2023/01/25 06:01:05;;;;;;;;;19.80;17.60;;;;;8.02;47.01;100743.38;5086070;28;8875;-79
2023/01/25 06:03:45;;;;;;;;;22.40;19.40;;;;;8.17;46.46;100749.00;5069116;28;8857;-78
2023/01/25 06:06:15;;;;;;;;;25.00;21.20;;;;;8.17;47.29;100754.22;5068963;28;8976;-78
2023/01/25 06:08:45;;;;;;;;;23.80;16.00;;;;;8.06;47.29;100750.41;5085974;28;8892;-79
2023/01/25 06:11:15;;;;;;;;;22.80;19.80;;;;;8.10;46.65;100754.88;5068496;28;8865;-78
2023/01/25 06:13:47;;;;;;;;;19.80;19.00;;;;;8.28;46.69;100753.63;5085273;28;8861;-79
2023/01/25 06:16:16;;;;;;;;;20.00;17.00;;;;;8.26;46.68;100757.91;5068563;28;8888;-79
2023/01/25 06:19:08;;;;;;;;;19.60;19.20;;;;;8.32;46.83;100755.50;5085693;28;8856;-78
2023/01/25 06:21:40;;;;;;;;;17.40;17.40;;;;;8.44;46.73;100758.47;5036666;28;8853;-80
2023/01/25 06:24:09;;;;;;;;;21.20;17.80;;;;;8.39;46.50;100758.31;5051907;28;8841;-80
2023/01/25 06:26:37;;;;;;;;;19.40;17.40;;;;;8.29;46.65;100752.81;5085487;28;8853;-78
2023/01/25 06:29:06;;;;;;;;;26.40;23.40;;;;;8.24;46.07;100750.09;5079825;28;8844;-78
2023/01/25 06:31:35;;;;;;;;;25.00;20.20;;;;;8.25;46.84;100750.97;5088056;28;8873;-80
2023/01/25 06:34:05;;;;;;;;;19.20;19.20;;;;;8.20;46.71;100750.81;5069055;28;8844;-79
2023/01/25 06:36:35;;;;;;;;;23.60;19.00;;;;;8.32;46.75;100747.69;5086108;28;8852;-80
2023/01/25 06:39:05;;;;;;;;;27.60;23.80;;;;;8.24;46.87;100743.97;5090704;28;8843;-79
2023/01/25 06:41:34;;;;;;;;;29.60;26.40;;;;;8.26;46.29;100745.81;5088902;28;8884;-81
2023/01/25 06:44:04;;;;;;;;;31.20;26.20;;;;;8.15;46.26;100753.28;5072585;28;8860;-79
2023/01/25 06:46:32;;;;;;;;;31.40;23.60;;;;;8.24;46.42;100755.28;5087244;28;9154;-79
2023/01/25 06:49:01;;;;;;;;;29.00;23.40;;;;;8.36;45.95;100753.00;5089619;28;8840;-79
2023/01/25 06:51:30;;;;;;;;;25.40;23.20;;;;;8.26;46.81;100747.50;5089612;28;8934;-80
2023/01/25 06:54:02;;;;;;;;;22.40;20.20;;;;;8.34;46.32;100749.50;5089542;28;9661;-78
2023/01/25 06:56:31;;;;;;;;;24.00;20.20;;;;;8.25;46.43;100745.75;5089405;28;8930;-79
2023/01/25 06:59:00;;;;;;;;;19.40;16.40;;;;;8.23;46.63;100743.13;5056399;28;8857;-78
2023/01/25 07:01:29;;;;;;;;;20.60;19.20;;;;;8.30;46.56;100747.66;5082695;28;8879;-80
2023/01/25 07:03:59;;;;;;;;;19.20;18.80;;;;;8.25;46.58;100746.63;5072066;28;9606;-81
2023/01/25 07:06:33;;;;;;;;;22.40;20.00;;;;;8.17;46.62;100753.34;5095415;28;8916;-79
2023/01/25 07:09:05;;;;;;;;;22.40;20.80;;;;;8.22;45.96;100749.13;5109398;28;8825;-81
2023/01/25 07:11:34;;;;;;;;;24.20;23.20;;;;;8.06;46.86;100745.22;5091962;28;8848;-79
2023/01/25 07:14:04;;;;;;;;;24.80;21.40;;;;;8.13;46.60;100747.16;5090060;28;9586;-78
2023/01/25 07:16:37;;;;;;;;;23.80;22.20;;;;;8.15;46.46;100752.41;5089825;28;8837;-79
2023/01/25 07:19:07;;;;;;;;;31.60;24.60;;;;;8.08;46.48;100750.47;5090418;28;8933;-79
2023/01/25 07:21:36;;;;;;;;;30.40;25.80;;;;;8.07;46.21;100754.78;5090040;28;9665;-77
2023/01/25 07:24:07;;;;;;;;;22.80;19.60;;;;;8.03;46.73;100752.03;5093320;28;8840;-80
2023/01/25 07:26:35;;;;;;;;;19.60;19.20;;;;;8.10;45.76;100748.78;5091717;28;8873;-81
2023/01/25 07:29:04;;;;;;;;;26.80;25.80;;;;;8.07;45.76;100751.28;5073520;28;8930;-82
2023/01/25 07:31:33;;;;;;;;;23.00;22.20;;;;;8.23;46.18;100747.44;5090400;28;8841;-80
2023/01/25 07:34:02;;;;;;;;;29.00;23.60;;;;;8.07;45.54;100739.22;5091289;28;8872;-80
2023/01/25 07:36:31;;;;;;;;;30.20;21.40;;;;;7.89;46.03;100738.66;5109022;28;8957;-81
2023/01/25 07:39:00;;;;;;;;;36.75;32.00;;;;;7.83;45.99;100741.97;5092638;28;8935;-78
2023/01/25 07:41:31;;;;;;;;;17.25;14.50;;;;;7.81;46.05;100743.63;5092754;28;8988;-78
2023/01/25 07:44:00;;;;;;;;;26.80;25.20;;;;;7.58;46.23;100740.31;5093038;28;9002;-80
2023/01/25 07:46:39;;;;;;;;;29.60;26.20;;;;;7.69;45.82;100744.13;5075468;28;8940;-79
2023/01/25 07:49:08;;;;;;;;;31.50;29.75;;;;;7.44;46.25;100747.69;5092423;28;8967;-80
2023/01/25 07:51:37;;;;;;;;;24.60;22.80;;;;;7.67;46.18;100747.50;5025388;28;8826;-79
2023/01/25 07:54:06;;;;;;;;;29.40;25.20;;;;;7.83;46.24;100752.34;5092141;28;8840;-81
2023/01/25 07:56:39;;;;;;;;;33.75;32.75;;;;;7.65;46.21;100744.88;5108776;28;8860;-79
2023/01/25 07:59:09;;;;;;;;;28.00;24.80;;;;;7.67;45.98;100747.50;5074960;28;8853;-77
2023/01/25 08:01:39;;;;;;;;;28.40;26.60;;;;;7.42;46.59;100744.16;5092697;28;8825;-78
2023/01/25 08:04:09;;;;;;;;;26.40;22.40;;;;;7.36;46.72;100738.78;5091952;28;8885;-78
2023/01/25 08:06:38;;;;;;;;;25.80;23.80;;;;;7.57;46.41;100743.75;5091213;28;8810;-78
2023/01/25 08:09:11;;;;;;;;;26.20;25.20;;;;;7.59;46.10;100734.31;5090852;28;8857;-80
2023/01/25 08:11:42;;;;;;;;;16.20;15.60;;;;;7.68;46.21;100738.91;5089328;28;8833;-77
2023/01/25 08:14:12;;;;;;;;;29.40;27.20;;;;;7.68;46.39;100734.59;5090907;28;8858;-79
2023/01/25 08:16:41;;;;;;;;;30.00;25.20;;;;;7.81;45.40;100728.94;5088974;28;8899;-79
2023/01/25 08:19:11;;;;;;;;;26.80;26.00;;;;;7.50;46.03;100732.28;5090458;28;8849;-79
2023/01/25 08:21:40;;;;;;;;;27.80;26.00;;;;;7.63;46.10;100732.69;5090694;28;9582;-82
2023/01/25 08:24:09;;;;;;;;;25.40;24.20;;;;;7.51;46.51;100736.66;5072530;28;8833;-80
2023/01/25 08:26:38;;;;;;;;;32.00;28.80;;;;;7.79;45.89;100721.94;5090184;28;8838;-80
2023/01/25 08:29:11;;;;;;;;;27.80;24.00;;;;;7.99;45.95;100725.97;5088778;28;8864;-81
2023/01/25 08:31:42;;;;;;;;;26.60;24.40;;;;;8.06;44.68;100718.38;5088704;28;8955;-79
2023/01/25 08:34:12;;;;;;;;;23.80;20.40;;;;;7.89;45.00;100723.09;5089807;28;8861;-80
2023/01/25 08:36:41;;;;;;;;;21.00;20.20;;;;;7.84;45.60;100716.88;5088771;28;8861;-80
2023/01/25 08:39:12;;;;;;;;;22.00;19.60;;;;;7.76;45.62;100716.63;5098599;28;8892;-80
2023/01/25 08:41:42;;;;;;;;;27.40;25.60;;;;;7.74;45.22;100720.91;5111136;27;8948;-78
2023/01/25 08:44:13;;;;;;;;;20.00;16.75;;;;;7.61;46.03;100717.06;5128350;27;8966;-79
2023/01/25 08:46:41;;;;;;;;;32.20;26.60;;;;;7.45;45.98;100720.00;5108065;28;8891;-79
2023/01/25 08:49:10;;;;;;;;;22.80;22.00;;;;;7.59;46.08;100727.38;5091717;28;8849;-79
2023/01/25 08:51:39;;;;;;;;;33.20;29.60;;;;;7.74;45.78;100724.38;5066278;28;8991;-80
2023/01/25 08:54:11;;;;;;;;;38.20;32.40;;;;;7.74;45.50;100719.19;5049511;28;8856;-79
2023/01/25 08:56:41;;;;;;;;;26.40;24.00;;;;;7.59;46.08;100721.31;5066745;28;9619;-82
2023/01/25 08:59:13;;;;;;;;;25.20;22.00;;;;;7.54;46.58;100712.50;5066297;28;8938;-78
2023/01/25 09:01:42;;;;;;;;;25.60;22.80;;;;;7.49;46.15;100717.56;5049634;28;9018;-81
2023/01/25 09:04:11;;;;;;;;;36.00;30.00;;;;;7.18;46.93;100720.91;5066387;28;9015;-79
2023/01/25 09:06:40;;;;;;;;;26.40;23.80;;;;;7.40;46.17;100725.06;5074704;28;8969;-81
2023/01/25 09:09:09;;;;;;;;;29.00;25.60;;;;;7.41;46.92;100712.16;5052758;28;8834;-79
2023/01/25 09:11:39;;;;;;;;;30.25;28.50;;;;;7.56;46.83;100713.44;5069665;28;8854;-78
2023/01/25 09:14:08;;;;;;;;;28.40;27.00;;;;;7.70;45.93;100713.88;5086344;28;8857;-79
2023/01/25 09:16:38;;;;;;;;;28.00;26.00;;;;;7.64;45.66;100708.47;5086642;28;8837;-80
2023/01/25 09:19:07;;;;;;;;;21.40;18.60;;;;;7.56;45.65;100713.44;5086476;28;8830;-79
2023/01/25 09:21:36;;;;;;;;;26.20;24.00;;;;;7.75;45.46;100707.06;5069591;28;9026;-80
2023/01/25 09:24:06;;;;;;;;;33.00;30.75;;;;;7.60;46.03;100712.72;5109840;28;8841;-79
2023/01/25 09:26:38;;;;;;;;;24.40;23.60;;;;;7.63;45.74;100707.59;5108728;28;8853;-79
2023/01/25 09:29:09;;;;;;;;;35.60;31.60;;;;;7.62;46.13;100708.44;5109458;28;8868;-80
2023/01/25 09:31:42;;;;;;;;;26.60;24.80;;;;;7.62;45.75;100705.84;5090431;28;8863;-81
2023/01/25 09:34:25;;;;;;;;;32.75;30.50;;;;;7.41;46.58;100699.16;5089135;28;8844;-80
2023/01/25 09:36:53;;;;;;;;;31.40;29.20;;;;;7.83;45.28;100704.75;5088133;28;9596;-80
2023/01/25 09:39:22;;;;;;;;;25.60;18.60;;;;;7.75;46.14;100701.88;5086649;28;8884;-79
2023/01/25 09:42:12;;;;;;;;;28.40;27.40;;;;;7.81;45.71;100700.38;5087028;28;8861;-79
2023/01/25 09:45:01;;;;;;;;;32.00;27.60;;;;;7.90;45.21;100697.16;4993642;28;8938;-80
2023/01/25 09:47:41;;;;;;;;;32.80;27.20;;;;;7.93;45.75;100697.22;4974795;28;9635;-77
2023/01/25 09:50:35;;;;;;;;;29.60;28.20;;;;;8.01;44.99;100684.47;4990089;28;8869;-81
2023/01/25 09:53:24;;;;;;;;;24.80;22.20;;;;;8.14;44.95;100680.50;4990258;28;8870;-79
2023/01/25 09:55:57;;;;;;;;;29.80;25.80;;;;;8.10;44.97;100666.53;5006483;28;8846;-78
2023/01/25 09:58:32;;;;;;;;;32.20;26.80;;;;;8.14;45.49;100668.38;5006039;28;9670;-79
2023/01/25 10:01:20;;;;;;;;;29.60;22.80;;;;;8.17;44.41;100671.06;5006910;28;8896;-80
2023/01/25 10:04:15;;;;;;;;;23.40;21.80;;;;;8.18;44.99;100667.66;5009695;28;8945;-79
2023/01/25 10:06:46;;;;;;;;;32.60;24.60;;;;;8.24;44.95;100666.94;5035022;28;8872;-77
2023/01/25 10:09:39;;;;;;;;;30.80;27.40;;;;;8.29;44.70;100662.72;5031585;28;8864;-78
2023/01/25 10:12:16;;;;;;;;;27.40;27.40;;;;;8.26;44.63;100661.75;5067446;28;8848;-80
2023/01/25 10:14:45;;;;;;;;;33.60;30.40;;;;;8.22;44.67;100668.59;5066648;28;8836;-81
2023/01/25 10:17:23;;;;;;;;;36.20;30.60;;;;;8.22;44.29;100662.50;5050831;28;8872;-80
2023/01/25 10:20:08;;;;;;;;;27.00;25.20;;;;;8.11;45.03;100660.53;5067751;28;8867;-79
2023/01/25 10:22:46;;;;;;;;;24.80;21.80;;;;;8.10;45.01;100657.88;5098042;27;8812;-77
2023/01/25 10:25:29;;;;;;;;;25.40;25.40;;;;;8.14;44.26;100660.59;5128329;27;8901;-79
2023/01/25 10:28:12;;;;;;;;;27.00;21.40;;;;;7.97;45.42;100654.91;5110597;27;8871;-80
2023/01/25 10:30:48;;;;;;;;;21.80;21.80;;;;;7.97;44.62;100651.44;5090541;28;9598;-78
2023/01/25 10:33:20;;;;;;;;;19.20;17.00;;;;;7.59;45.43;100654.72;5106158;28;8852;-80
2023/01/25 10:35:50;;;;;;;;;23.80;22.20;;;;;7.94;45.56;100640.97;5089290;28;8841;-79
2023/01/25 10:38:25;;;;;;;;;22.60;20.20;;;;;8.00;44.84;100644.63;5065350;28;8996;-81
2023/01/25 10:41:00;;;;;;;;;27.40;21.20;;;;;7.91;44.60;100638.31;5005359;28;8870;-80
2023/01/25 10:43:30;;;;;;;;;25.40;23.00;;;;;8.11;44.51;100629.34;5005775;28;8898;-78
2023/01/25 10:45:58;;;;;;;;;19.20;18.60;;;;;8.10;44.00;100622.38;4973318;28;8999;-79
2023/01/25 10:48:32;;;;;;;;;16.00;14.80;;;;;8.03;44.56;100628.22;4989585;28;8862;-80
2023/01/25 10:51:03;;;;;;;;;16.00;16.00;;;;;7.97;43.68;100622.88;4973293;28;8975;-80
2023/01/25 10:53:34;;;;;;;;;18.20;17.40;;;;;8.03;44.17;100615.25;4966102;28;8847;-82
2023/01/25 10:56:24;;;;;;;;;16.60;16.40;;;;;8.27;43.65;100611.56;4966091;28;8839;-80
2023/01/25 10:59:08;;;;;;;;;13.00;12.40;;;;;8.17;43.44;100610.44;4976292;28;8886;-79
2023/01/25 11:01:37;;;;;;;;;12.60;12.20;;;;;8.12;43.38;100607.72;5007787;28;8843;-79
2023/01/25 11:04:33;;;;;;;;;11.40;10.60;;;;;8.28;42.67;100602.91;5048077;28;9745;-80
2023/01/25 11:07:05;;;;;;;;;19.80;14.00;;;;;8.22;42.85;100595.81;5048112;28;8860;-79
2023/01/25 11:09:37;;;;;;;;;13.00;10.40;;;;;8.02;43.33;100591.84;5031850;28;8847;-80
2023/01/25 11:12:17;;;;;;;;;13.80;13.60;;;;;8.11;43.10;100590.38;5048239;28;8844;-78
2023/01/25 11:14:49;;;;;;;;;12.40;12.00;;;;;8.03;43.30;100585.81;5013040;28;8869;-80
2023/01/25 11:17:30;;;;;;;;;10.40;9.20;;;;;8.06;43.09;100589.38;5045024;28;8890;-79
2023/01/25 11:20:15;;;;;;;;;15.00;15.00;;;;;8.13;43.00;100580.91;5028532;28;9632;-80
2023/01/25 11:22:54;;;;;;;;;13.00;10.20;;;;;8.29;42.27;100573.50;5045085;28;8923;-79
2023/01/25 11:25:30;;;;;;;;;18.80;13.00;;;;;8.38;42.32;100573.72;5079431;28;8851;-79
2023/01/25 11:28:11;;;;;;;;;14.80;13.60;;;;;8.30;42.05;100576.13;5099814;28;8915;-79
2023/01/25 11:30:40;;;;;;;;;15.80;12.60;;;;;8.35;42.47;100574.50;5059828;28;8861;-80
2023/01/25 11:33:11;;;;;;;;;13.20;12.40;;;;;8.21;42.86;100557.72;5076177;28;8837;-80
2023/01/25 11:36:08;;;;;;;;;13.60;9.80;;;;;8.14;43.19;100571.38;5110559;28;8868;-79
2023/01/25 11:38:48;;;;;;;;;15.40;12.00;;;;;8.13;43.05;100561.84;5028562;28;8830;-79
2023/01/25 11:41:27;;;;;;;;;15.00;13.60;;;;;8.07;43.34;100554.78;5012340;28;8841;-80
2023/01/25 11:44:21;;;;;;;;;11.40;10.00;;;;;7.78;44.30;100561.78;5028316;28;8854;-78
2023/01/25 11:47:01;;;;;;;;;13.40;12.60;;;;;8.16;43.30;100549.78;4969748;28;8864;-80
2023/01/25 11:49:44;;;;;;;;;15.20;13.40;;;;;8.32;43.09;100542.41;4969255;28;8880;-80
2023/01/25 11:52:25;;;;;;;;;14.60;13.00;;;;;8.51;43.20;100541.16;4969330;28;9605;-80